Aviation Digital Data Service (ADDS)

Output produced by METARs form (0741 UTC 24 March 2019)
found at http://www.aviationweather.gov/metar/data/
 
KANW 240735Z AUTO 04004KT 10SM OVC022 04/04 A2999 RMK AO2 T00350035
KBVN 240735Z AUTO 04007KT 7SM -RA BKN013 OVC043 06/05 A2993 RMK AO2 P0001 T00610051
KAIA 240737Z AUTO 33003KT 3SM BR SCT012 BKN020 02/02 A3000 RMK AO2 T00170017
KAIA 240520Z 2406/2506 VRB04KT 5SM BR BKN004 OVC007 
     TEMPO 2406/2409 1SM BR OVC004 
     FM240900 VRB03KT 1/2SM FG OVC004 
     FM241600 36005KT 5SM BR BKN007 OVC015
       
KAUH 240735Z AUTO 07008KT 2 1/2SM BR OVC003 07/07 A2987 RMK AO2 T00710071
KBIE 240735Z AUTO 16011G15KT 7SM BKN007 OVC011 11/10 A2989 RMK AO2 T01080103
KBBW 240653Z AUTO 34014KT 10SM OVC012 05/04 A2995 RMK AO2 SLP149 T00500039
KCDR 240653Z AUTO 15004KT 4SM BR OVC017 02/02 A3001 RMK AO2 SLP187 T00220022 400670022
KCDR 240520Z 2406/2506 VRB03KT 5SM BR OVC020 
     TEMPO 2406/2409 1SM BR BKN007 OVC015 
     FM240900 VRB04KT 1/2SM FG OVC004 
     FM241600 VRB05KT 3SM BR OVC007
       
KOLU 240732Z AUTO 05006KT 5SM RA BR BKN007 OVC014 06/06 A2993 RMK AO2 PNO $
KFNB 240653Z AUTO 15007KT 10SM -RA OVC019 10/08 A2995 RMK AO2 RAB06 SLP144 P0000 T01000078
KFET 240735Z AUTO 06004KT 7SM -RA OVC008 09/07 A2994 RMK AO2 P0001 T00850074
KGRN 240735Z AUTO 13003KT 1/4SM FG OVC002 03/03 A3000 RMK AO2 T00290025
KGRI 240709Z AUTO 03009KT 2SM -RA BR OVC003 07/06 A2988 RMK AO2 P0001 T00670061
KGRI 240538Z 2406/2506 07011KT 3SM BR VCSH BKN006 OVC014 
     FM240800 02010KT 2SM BR VCSH OVC005 
     FM241200 34010G18KT 6SM BR BKN006 
     FM241700 35013KT P6SM OVC014 
     FM250500 02008KT P6SM BKN045
       
KHSI 240730Z AUTO 00000KT 1 3/4SM BR OVC004 08/07 A2986 RMK AO2 T00830072 TSNO
KHJH 240735Z AUTO 21007KT 10SM BKN040 BKN070 OVC120 09/07 A2988 RMK AO2 T00860070
KHDE 240735Z AUTO 32013G20KT 7SM OVC005 05/05 A2991 RMK AO2 P0003 T00540054
KIML 240653Z AUTO 30007KT 10SM FEW024 SCT036 04/03 A2999 RMK AO2 SLP165 T00440028 400780044 PNO $
KEAR 240657Z AUTO 36014KT 4SM -RA BR OVC003 06/06 A2989 RMK AO2 RAB27 SLP125 P0001 T00560056
KEAR 240538Z 2406/2506 03011KT 5SM BR OVC005 
     FM240900 34012G22KT 6SM BR BKN006 
     FM241700 34011KT P6SM OVC013 
     FM242300 01011KT P6SM BKN025 
     FM250200 01008KT P6SM BKN060
       
KIBM 240710Z AUTO 30003KT 10SM OVC060 04/03 A3001 RMK AO2 T00350031
KLXN 240735Z AUTO 35012KT 10SM OVC011 06/04 A2994 RMK AO2 T00610042
KLNK 240732Z 09006KT 6SM BR SCT010 BKN014 OVC036 09/08 A2991 RMK AO2 RAE14 P0000 T00940083
KLNK 240520Z 2406/2506 10008KT 5SM -SHRA BR OVC015 
     TEMPO 2406/2408 3SM -SHRA BR 
     FM240900 09006KT P6SM VCSH OVC008 
     FM241400 36006KT P6SM VCSH OVC010 
     FM241600 35009KT P6SM OVC015 
     FM250400 01009KT P6SM OVC030
       
KMCK 240720Z AUTO 29013KT 7SM BKN027 OVC070 06/04 A2997 RMK AO2 T00560044
KMCK 240530Z 2406/2506 30009KT P6SM SCT020 OVC030 
     TEMPO 2408/2412 5SM BR BKN020 
     FM241700 35008KT P6SM SCT040 BKN120 
     FM250300 03006KT P6SM BKN025
       
KAFK 240735Z AUTO 16008KT 7SM -RA OVC012 10/08 A2994 RMK AO2 P0004 T00950080
KLBF 240731Z AUTO 01005KT 9SM BKN009 OVC065 06/04 A2998 RMK AO2 T00560039
KLBF 240520Z 2406/2506 01008KT P6SM SCT015 OVC022 
     FM241000 32005KT 5SM BR OVC010 
     FM241500 34006KT P6SM BKN015 OVC025 
     FM242100 01009KT P6SM BKN040
       
KOGA 240735Z AUTO 32004KT 10SM OVC024 05/05 A3000 RMK AO2 T00540050
KBTA 240735Z AUTO 09005KT 5SM -DZ BKN007 OVC011 08/08 A2994 RMK AO2 T00820075
KOMA 240652Z 13011KT 9SM OVC014 11/07 A2995 RMK AO2 SLP142 T01060067
KOMA 240520Z 2406/2506 11009KT P6SM VCSH OVC025 
     TEMPO 2406/2408 4SM -SHRA OVC015 
     FM240800 10008KT 4SM -SHRA OVC015 
     FM241000 VRB04KT 6SM -SHRA BR OVC008 
     TEMPO 2410/2414 3SM -SHRA BR OVC007 
     FM241500 VRB04KT P6SM VCSH OVC008 
     FM242000 36011KT P6SM OVC015
       
KMLE 240735Z AUTO 12003KT 10SM BKN007 OVC011 10/09 A2994 RMK AO2 T01000090
KONL 240735Z AUTO 01006KT 7SM -RA SCT014 BKN032 OVC050 05/04 A2999 RMK AO2 T00460040
KODX 240733Z AUTO 35008KT 10SM OVC012 06/04 A2993 RMK AO2 T00560039
KPMV 240735Z AUTO 14007KT 4SM RA BKN002 OVC010 09/09 A2993 RMK AO2 P0002 T00910088
KBFF 240737Z AUTO 00000KT 2 1/2SM -RA BR BKN002 BKN009 OVC040 04/04 A3001 RMK AO2 P0000 T00440044 $
KBFF 240617Z 2406/2506 VRB03KT 5SM -RA BR OVC025 
     TEMPO 2406/2410 3/4SM -RA BR OVC015 
     FM241200 30005KT 5SM BR BKN007 OVC015 
     FM241900 35005KT P6SM OVC025 
     FM242300 07007KT P6SM VCSH BKN025 OVC050
       
KSNY 240714Z AUTO 31004KT 4SM -RA BR BKN029 OVC042 03/03 A3001 RMK AO2 P0000 T00330028
KSNY 240520Z 2406/2506 28007KT 5SM BR OVC025 
     TEMPO 2406/2410 2SM BR OVC015 
     FM241200 31007KT 3SM BR OVC015 
     FM241800 36008KT P6SM BKN025 OVC050
       
KTQE 240716Z AUTO 06005KT 10SM -RA BKN014 OVC023 07/06 A2996 RMK AO2 P0000 T00670056
KTIF 240735Z AUTO 36004KT 7SM OVC080 04/04 A2998 RMK AO2 T00420036
KVTN 240717Z AUTO 01003KT 6SM BR BKN007 OVC085 04/02 A3001 RMK AO2 T00440022
KVTN 240520Z 2406/2506 06007KT P6SM BKN016 OVC020 
     FM240900 VRB03KT P6SM OVC015 
     FM241100 01006KT 5SM BR BKN008 OVC015 
     FM241700 02009KT P6SM OVC020 
     FM250200 03008KT P6SM OVC015 
     FM250400 04007KT P6SM OVC008
       
KAHQ 240735Z AUTO 10007KT 5SM RA CLR 08/08 A2992 RMK AO2 P0003 T00800080
KLCG 240735Z AUTO 04003KT 10SM OVC016 06/03 A2996 RMK AO2 T00550031
KJYR 240735Z AUTO 11008KT 5SM BR OVC004 08/08 A2988 RMK AO2